Latest Weather Observations for Nowra

IDN60801

Issued at 5:03 pm EDT Sunday 22 October 2017 (issued every 30 minutes, with the page automatically refreshed every 10 minutes)

About weather observations | Map of weather stations | Latest weather observations for NSW | Other Formats
Station Details ID: 068072 Name: NOWRA RAN AIR STATION AWS Lat: -34.95 Lon: 150.54 Height: 109.0 m
Data from the previous 72 hours. | See also: Recent months at Nowra
Date/Time
EDT
Temp
°C
App
Temp
°C
Dew
Point
°C
Rel
Hum
%
Delta-T
°C
Wind Press
QNH
hPa
Press
MSL
hPa
Rain since
9am
mm
Dir  Spd
km/h
Gust
km/h
Spd
kts
Gust
kts
22/05:00pm 16.3 13.3 9.3 63 3.6 SE 15 19 8 10 1013.6 1013.4 0.0
22/04:30pm 16.1 12.6 8.6 61 3.8 SSE 17 22 9 12 1013.3 1013.1 0.0
22/04:00pm 17.1 13.0 8.5 57 4.4 ESE 20 28 11 15 1013.2 1013.0 0.0
22/03:30pm 17.3 13.5 9.7 61 4.0 ESE 20 30 11 16 1013.2 1013.0 0.0
22/03:00pm 17.8 15.1 10.4 62 4.0 E 15 20 8 11 1013.0 1012.8 0.0
22/02:30pm 17.1 15.6 13.0 77 2.3 ENE 13 20 7 11 1013.1 1012.9 0.0
22/02:19pm 15.6 14.3 12.5 82 1.7 SE 11 15 6 8 1013.4 1013.2 0.0
22/02:00pm 14.9 11.0 12.2 84 1.5 SSE 24 32 13 17 1013.4 1013.2 0.0
22/01:30pm 18.1 13.5 11.0 63 3.9 SE 26 33 14 18 1013.3 1013.1 0.0
22/01:00pm 20.1 16.0 10.2 53 5.4 ESE 22 32 12 17 1013.3 1013.1 0.0
22/12:30pm 19.7 16.2 10.9 57 4.8 SE 20 32 11 17 1013.3 1013.1 0.0
22/12:00pm 19.8 16.4 9.1 50 5.7 SE 17 26 9 14 1013.3 1013.1 0.0
22/11:30am 19.0 16.9 8.1 49 5.6 E 9 15 5 8 1013.7 1013.5 0.0
22/11:00am 19.0 16.2 8.6 51 5.4 ENE 13 20 7 11 1014.1 1013.9 0.0
22/10:30am 17.6 16.1 9.2 58 4.4 ESE 7 11 4 6 1014.6 1014.4 0.0
22/10:00am 16.8 15.0 9.5 62 3.8 ESE 9 15 5 8 1014.9 1014.7 0.0
22/09:30am 14.9 14.6 8.6 66 3.2 CALM 0 0 0 0 1015.1 1014.9 0.0
22/09:00am 14.7 13.3 8.9 68 3.0 SW 6 9 3 5 1015.4 1015.2 0.0
22/08:30am 14.7 13.2 8.6 67 3.1 WSW 6 7 3 4 1015.3 1015.1 0.0
22/08:00am 14.4 13.2 9.4 72 2.6 W 6 9 3 5 1015.1 1014.9 0.0
22/07:30am 13.6 13.1 9.5 76 2.1 WSW 2 9 1 5 1015.0 1014.8 0.0
22/07:00am 12.4 12.3 9.4 82 1.5 CALM 0 0 0 0 1014.8 1014.6 0.0
22/06:30am 11.8 10.5 9.2 84 1.3 WNW 6 7 3 4 1014.7 1014.5 0.0
22/06:00am 12.2 11.6 9.0 81 1.6 W 2 7 1 4 1014.6 1014.4 0.0
22/05:30am 12.5 10.6 9.1 80 1.7 W 9 11 5 6 1014.7 1014.5 0.0
22/05:00am 12.9 11.0 9.2 78 1.9 W 9 11 5 6 1014.7 1014.5 0.0
22/04:30am 12.8 11.0 9.3 79 1.8 W 9 11 5 6 1014.9 1014.7 0.0
22/04:00am 12.7 10.5 9.3 80 1.7 W 11 13 6 7 1015.1 1014.9 0.0
22/03:30am 12.5 10.7 9.5 82 1.5 W 9 11 5 6 1015.3 1015.1 0.0
22/03:00am 12.5 11.2 9.9 84 1.3 WNW 7 9 4 5 1015.7 1015.5 0.0
22/02:30am 12.9 12.8 9.4 79 1.8 CALM 0 0 0 0 1016.1 1015.9 0.0
22/02:00am 13.2 13.1 9.3 77 2.0 CALM 0 4 0 2 1016.4 1016.2 0.0
22/01:30am 13.4 11.9 9.3 76 2.1 WNW 7 11 4 6 1016.8 1016.6 0.0
22/01:00am 13.3 11.8 9.2 76 2.1 NW 7 9 4 5 1017.3 1017.1 0.0
22/12:30am 13.3 11.9 9.0 75 2.2 SW 6 9 3 5 1017.5 1017.3 0.0
22/12:00am 13.3 11.8 9.2 76 2.1 SSW 7 9 4 5 1017.8 1017.6 0.0
 
Date/Time
EDT
Temp
°C
App
Temp
°C
Dew
Point
°C
Rel
Hum
%
Delta-T
°C
Wind Press
QNH
hPa
Press
MSL
hPa
Rain since
9am
mm
Dir  Spd
km/h
Gust
km/h
Spd
kts
Gust
kts
21/11:30pm 13.3 11.4 9.2 76 2.1 SSW 9 11 5 6 1018.0 1017.8 0.0
21/11:00pm 13.3 11.4 9.2 76 2.1 SSW 9 11 5 6 1018.1 1017.9 0.0
21/10:30pm 13.0 11.2 9.3 78 1.9 SSW 9 11 5 6 1018.3 1018.1 0.0
21/10:00pm 12.8 11.0 9.3 79 1.8 SSW 9 11 5 6 1018.5 1018.3 0.0
21/09:30pm 12.3 10.1 9.5 83 1.4 SSW 11 11 6 6 1018.6 1018.4 0.0
21/09:00pm 11.1 9.1 8.7 85 1.2 SSW 9 11 5 6 1018.6 1018.4 0.0
21/08:30pm 11.5 9.5 8.7 83 1.4 S 9 11 5 6 1018.4 1018.2 0.0
21/08:00pm 12.6 11.0 8.1 74 2.2 ESE 6 7 3 4 1018.3 1018.1 0.0
21/07:30pm 13.5 11.0 8.1 70 2.7 E 11 13 6 7 1018.1 1017.9 0.0
21/07:00pm 14.3 10.6 8.0 66 3.1 ENE 17 20 9 11 1017.8 1017.6 0.0
21/06:30pm 15.5 11.4 8.0 61 3.8 ESE 19 24 10 13 1017.6 1017.4 0.0
21/06:00pm 16.1 12.6 7.3 56 4.4 ESE 15 22 8 12 1017.5 1017.3 0.0
21/05:30pm 16.8 12.9 7.2 53 4.8 SE 17 22 9 12 1017.6 1017.4 0.0
21/05:00pm 17.2 14.0 6.7 50 5.2 SE 13 19 7 10 1017.6 1017.4 0.0
21/04:30pm 17.6 13.7 7.1 50 5.3 ESE 17 24 9 13 1017.8 1017.6 0.0
21/04:00pm 18.2 14.7 7.3 49 5.5 E 15 24 8 13 1018.2 1018.0 0.0
21/03:30pm 17.6 13.4 7.4 51 5.2 E 19 28 10 15 1018.5 1018.3 0.0
21/03:00pm 18.3 15.3 6.2 45 6.0 E 11 17 6 9 1019.0 1018.9 0.0
21/02:30pm 18.2 14.5 6.1 45 6.0 ESE 15 28 8 15 1019.4 1019.3 0.0
21/02:00pm 18.1 14.3 6.0 45 6.0 SE 15 22 8 12 1019.8 1019.7 0.0
21/01:30pm 18.1 14.6 5.3 43 6.2 E 13 19 7 10 1020.2 1020.1 0.0
21/01:00pm 17.8 14.0 5.7 45 5.9 E 15 24 8 13 1020.8 1020.7 0.0
21/12:30pm 17.5 13.2 5.4 45 5.9 SE 17 24 9 13 1021.2 1021.1 0.0
21/12:00pm 16.0 11.3 5.9 51 4.9 ESE 20 32 11 17 1021.6 1021.5 0.0
21/11:30am 16.3 12.1 5.6 49 5.2 SSE 17 28 9 15 1022.0 1021.9 0.0
21/11:00am 16.1 11.2 5.1 48 5.2 SSE 20 32 11 17 1022.2 1022.1 0.0
21/10:30am 16.0 11.8 5.9 51 4.9 SSE 17 26 9 14 1022.6 1022.5 0.0
21/10:00am 15.6 10.3 5.2 50 4.9 SSE 22 30 12 16 1022.8 1022.6 0.0
21/09:30am 14.5 9.7 5.8 56 4.2 S 20 28 11 15 1022.9 1022.7 0.0
21/09:00am 13.6 9.6 5.0 56 4.0 SSW 15 22 8 12 1023.0 1022.8 0.0
21/08:30am 13.1 8.0 4.3 55 4.0 S 20 30 11 16 1022.9 1022.7 0.0
21/08:00am 11.8 8.9 4.8 62 3.2 SW 9 15 5 8 1023.0 1022.8 0.0
21/07:30am 10.3 7.6 5.5 72 2.2 W 9 11 5 6 1023.1 1022.9 0.0
21/07:00am 9.7 7.1 6.2 79 1.6 WNW 9 11 5 6 1022.9 1022.7 0.0
21/06:30am 7.8 5.5 5.9 88 0.9 WNW 7 11 4 6 1022.8 1022.6 0.0
21/06:00am 8.5 6.1 5.1 79 1.5 W 7 11 4 6 1022.5 1022.4 0.0
21/05:30am 9.7 5.5 5.7 76 1.8 SW 17 20 9 11 1022.5 1022.4 0.0
21/05:00am 9.5 5.4 6.4 81 1.4 WSW 17 19 9 10 1022.6 1022.5 0.0
21/04:30am 9.3 6.1 6.7 84 1.2 WSW 13 15 7 8 1023.0 1022.8 0.0
21/04:00am 9.7 6.5 7.0 83 1.3 WSW 13 15 7 8 1023.1 1022.9 0.0
21/03:30am 10.5 7.4 7.2 80 1.6 WSW 13 15 7 8 1023.2 1023.0 0.0
21/03:00am 11.1 8.4 7.4 78 1.8 SW 11 13 6 7 1023.5 1023.3 0.0
21/02:30am 11.7 9.0 7.4 75 2.1 SW 11 13 6 7 1023.7 1023.5 0.0
21/02:00am 13.2 8.8 6.5 64 3.2 S 19 26 10 14 1024.0 1023.8 0.0
21/01:30am 13.0 8.4 6.6 65 3.1 S 20 33 11 18 1024.3 1024.1 0.0
21/01:00am 13.4 9.3 7.8 69 2.8 S 19 26 10 14 1024.6 1024.4 0.0
21/12:30am 13.6 10.0 8.2 70 2.7 SSE 17 24 9 13 1024.9 1024.7 0.0
21/12:00am 13.6 9.4 8.2 70 2.7 SSE 20 32 11 17 1025.0 1024.8 0.0
 
Date/Time
EDT
Temp
°C
App
Temp
°C
Dew
Point
°C
Rel
Hum
%
Delta-T
°C
Wind Press
QNH
hPa
Press
MSL
hPa
Rain since
9am
mm
Dir  Spd
km/h
Gust
km/h
Spd
kts
Gust
kts
20/11:30pm 13.7 10.6 9.0 73 2.4 SSE 15 20 8 11 1025.1 1024.9 0.0
20/11:00pm 13.5 11.9 10.3 81 1.7 S 9 17 5 9 1025.1 1024.9 0.0
20/10:30pm 13.1 13.2 11.5 90 0.9 SSW 2 6 1 3 1025.0 1024.8 0.0
20/10:00pm 13.0 12.3 12.1 94 0.5 SSW 7 7 4 4 1025.1 1024.9 0.0
20/09:30pm 13.2 12.1 11.9 92 0.7 SSW 9 19 5 10 1025.1 1024.9 0.0
20/09:00pm 13.2 11.9 12.4 95 0.4 SW 11 13 6 7 1024.8 1024.6 0.0
20/08:30pm 13.2 12.4 12.9 98 0.2 SW 9 13 5 7 1024.6 1024.4 0.0
20/08:00pm 13.2 12.8 12.9 98 0.2 SW 7 9 4 5 1024.1 1023.9 0.0
20/07:30pm 13.3 12.6 13.1 99 0.1 SW 9 11 5 6 1023.8 1023.6 0.0
20/07:00pm 13.3 12.2 13.1 99 0.1 SSW 11 15 6 8 1023.5 1023.3 0.0
20/06:30pm 13.2 12.4 13.0 99 0.1 SW 9 11 5 6 1023.3 1023.1 0.0
20/06:05pm 13.0 11.8 12.8 99 0.1 SSW 11 17 6 9 1023.1 1022.9 0.0
20/06:00pm 13.1 11.9 12.9 99 0.1 SSW 11 15 6 8 1023.0 1022.8 0.0
20/05:46pm 13.1 11.9 12.9 99 0.1 S 11 15 6 8 1022.8 1022.6 0.0
20/05:43pm 13.1 11.9 12.9 99 0.1 S 11 15 6 8 1022.6 1022.5 0.0
20/05:35pm 13.1 11.9 12.9 99 0.1 S 11 15 6 8 1022.5 1022.4 0.0
20/05:30pm 13.0 11.5 13.0 100 0.0 S 13 17 7 9 1022.5 1022.4 0.0
20/05:00pm 13.1 10.8 13.1 100 0.0 SSE 17 22 9 12 1022.2 1022.1 0.0
20/04:33pm 13.3 10.0 12.7 96 0.3 SE 22 33 12 18 1022.1 1022.0 0.0
20/04:30pm 13.3 10.1 12.0 92 0.7 SE 20 33 11 18 1022.1 1022.0 0.0
20/04:28pm 13.7 10.5 11.9 89 1.0 SE 20 32 11 17 1022.1 1022.0 0.0
20/04:00pm 14.8 11.7 10.2 74 2.4 S 17 24 9 13 1021.8 1021.7 0.0
20/03:30pm 15.4 10.7 10.6 73 2.5 SSE 26 33 14 18 1021.9 1021.8 0.0
20/03:00pm 15.5 11.6 10.7 73 2.5 SSE 22 32 12 17 1022.2 1022.1 0.0
20/02:30pm 14.4 13.6 12.8 90 0.9 SSE 9 11 5 6 1022.6 1022.5 0.0
20/02:24pm 14.3 13.1 12.9 91 0.8 SSE 11 20 6 11 1022.5 1022.4 0.0
20/02:11pm 13.9 12.5 13.4 97 0.3 SSE 13 17 7 9 1022.6 1022.5 0.0
20/02:00pm 13.6 11.4 13.4 99 0.1 SSE 17 30 9 16 1022.6 1022.5 0.0
20/01:34pm 13.4 11.6 13.2 99 0.1 SSE 15 26 8 14 1022.9 1022.7 0.0
20/01:30pm 13.7 12.0 13.5 99 0.1 SSE 15 22 8 12 1022.9 1022.7 0.0
20/01:18pm 13.3 11.0 13.1 99 0.1 SSE 17 28 9 15 1022.8 1022.6 0.0
20/01:00pm 13.3 11.5 13.3 100 0.0 SSE 15 26 8 14 1022.8 1022.6 0.0
20/12:30pm 13.1 9.9 13.1 100 0.0 SSE 22 35 12 19 1022.5 1022.4 0.0
20/12:00pm 13.5 10.7 13.3 99 0.1 S 20 30 11 16 1022.9 1022.7 0.0
20/11:30am 13.5 10.4 13.3 99 0.1 SSE 22 30 12 16 1022.9 1022.7 0.0
20/11:20am 13.8 10.2 13.2 96 0.3 S 24 35 13 19 1022.6 1022.5 0.0
20/11:07am 14.6 11.0 11.9 84 1.5 SSE 22 35 12 19 1022.6 1022.5 0.0
20/11:00am 15.1 12.1 12.1 82 1.6 SSE 19 26 10 14 1022.3 1022.2 0.0
20/10:30am 15.3 11.2 11.5 78 2.1 SSE 24 35 13 19 1022.2 1022.1 0.0
20/10:00am 15.2 12.0 11.4 78 2.0 SSE 19 28 10 15 1022.1 1022.0 0.0
20/09:30am 15.1 12.9 13.3 89 1.0 SSE 17 28 9 15 1021.8 1021.7 0.0
20/09:00am 15.0 12.4 14.8 99 0.1 SSE 22 30 12 16 1021.2 1021.1 0.0
20/08:42am 14.8 11.7 14.6 99 0.1 SSE 24 33 13 18 1021.2 1021.1 0.0
20/08:30am 14.8 12.1 14.6 99 0.1 SSE 22 30 12 16 1021.1 1021.0 0.0
20/08:19am 14.8 11.3 14.6 99 0.1 S 26 35 14 19 1021.1 1021.0 0.0
20/08:00am 15.2 13.1 15.2 100 0.0 SSE 20 30 11 16 1020.9 1020.8 0.0
20/07:30am 15.6 12.9 15.6 100 0.0 SSE 24 37 13 20 1020.1 1020.0 0.0
20/07:14am 16.0 11.3 15.8 99 0.1 S 35 54 19 29 1019.8 1019.7 0.0
20/07:04am 17.0 15.7 16.8 99 0.1 S 19 54 10 29 1019.5 1019.4 0.0
20/07:00am 18.3 19.2 18.3 100 0.0 S 11 19 6 10 1019.4 1019.3 0.0
20/06:30am 18.6 21.7 18.6 100 0.0 CALM 0 0 0 0 1018.6 1018.4 0.0
20/06:00am 18.6 20.0 18.6 100 0.0 WNW 9 13 5 7 1018.0 1017.8 0.0
20/05:30am 18.6 19.6 18.6 100 0.0 NW 11 15 6 8 1017.8 1017.6 0.0
20/05:00am 18.6 20.3 18.6 100 0.0 NW 7 9 4 5 1017.5 1017.3 0.0
20/04:30am 18.7 20.1 18.7 100 0.0 W 9 11 5 6 1017.6 1017.4 0.0
20/04:00am 18.6 20.3 18.6 100 0.0 WNW 7 9 4 5 1017.6 1017.4 0.0
20/03:30am 18.7 20.5 18.7 100 0.0 WNW 7 9 4 5 1017.8 1017.6 0.0
20/03:00am 18.6 20.5 18.6 100 0.0 NW 6 7 3 4 1018.1 1017.9 0.0
20/02:30am 18.7 20.5 18.7 100 0.0 NW 7 9 4 5 1018.3 1018.1 0.0
20/02:00am 18.7 20.1 18.7 100 0.0 NW 9 11 5 6 1018.6 1018.4 0.0
20/01:30am 19.0 21.9 18.3 96 0.4 CALM 0 0 0 0 1018.9 1018.8 0.0
20/01:00am 19.1 20.3 18.3 95 0.5 SSW 9 9 5 5 1019.3 1019.2 0.0
20/12:53am 19.3 20.4 18.1 93 0.7 S 9 9 5 5 1019.3 1019.2 0.0
20/12:41am 19.4 20.4 17.7 90 1.0 S 9 11 5 6 1019.3 1019.2 0.0
20/12:30am 19.6 20.7 17.0 85 1.6 S 7 20 4 11 1019.4 1019.3 0.0
20/12:00am 19.6 20.3 16.1 80 2.1 SSE 7 9 4 5 1019.1 1019.0 0.0
 
Date/Time
EDT
Temp
°C
App
Temp
°C
Dew
Point
°C
Rel
Hum
%
Delta-T
°C
Wind Press
QNH
hPa
Press
MSL
hPa
Rain since
9am
mm
Dir  Spd
km/h
Gust
km/h
Spd
kts
Gust
kts
19/11:30pm 19.8 20.1 15.9 78 2.3 SE 9 11 5 6 1019.0 1018.9 0.0
19/11:00pm 19.8 20.1 15.9 78 2.3 SE 9 19 5 10 1018.9 1018.8 0.0
19/10:30pm 20.1 21.6 15.7 76 2.6 SW 2 7 1 4 1018.9 1018.8 0.0
19/10:00pm 20.3 21.7 15.3 73 3.0 S 2 6 1 3 1018.8 1018.6 0.0
19/09:30pm 20.3 21.7 15.5 74 2.9 SE 2 9 1 5 1018.6 1018.4 0.0
19/09:00pm 20.4 22.2 15.6 74 2.9 CALM 0 7 0 4 1018.4 1018.2 0.0
19/08:30pm 20.6 21.2 15.2 71 3.2 SW 6 9 3 5 1018.4 1018.2 0.0
19/08:00pm 20.8 21.3 14.9 69 3.5 SSE 6 11 3 6 1018.0 1017.8 0.0
19/07:30pm 20.9 20.8 15.0 69 3.5 SE 9 11 5 6 1017.8 1017.6 0.0
19/07:00pm 22.1 21.3 14.0 60 4.7 SSE 11 13 6 7 1017.4 1017.2 0.0
19/06:30pm 22.9 22.4 13.9 57 5.3 SSE 9 13 5 7 1017.1 1016.9 0.0
19/06:00pm 23.5 22.3 13.9 55 5.6 ESE 13 17 7 9 1016.8 1016.6 0.0
19/05:30pm 24.8 23.3 14.3 52 6.2 ESE 15 24 8 13 1016.8 1016.6 0.0

Other Formats:

Comma delimited format used in spreadsheet applications
http://www.bom.gov.au/fwo/IDN60801/IDN60801.94750.axf

JavaScript Object Notation format (JSON) in row-major order
http://www.bom.gov.au/fwo/IDN60801/IDN60801.94750.json